Time;durP1;ratioP1;P1;durP2;ratioP2;P2;SDS_P1;SDS_P2;PMS_P1;PMS_P2;Temp;Humidity;BMP_temperature;BMP_pressure;BME280_temperature;BME280_humidity;BME280_pressure;Samples;Min_cycle;Max_cycle;Signal;HPM_P1;HPM_P2
2023/07/02 00:01:45;;;;;;;13.32;7.45;;;20.80;99.90;;;;;;5051638;28;20079;-82
2023/07/02 00:04:15;;;;;;;13.57;7.88;;;20.70;99.90;;;;;;5051931;28;20117;-82
2023/07/02 00:06:47;;;;;;;14.13;7.53;;;20.60;99.90;;;;;;5051469;28;20076;-78
2023/07/02 00:09:13;;;;;;;15.95;7.47;;;20.60;99.90;;;;;;5051766;28;20028;-80
2023/07/02 00:11:41;;;;;;;14.63;7.60;;;20.50;99.90;;;;;;5051722;28;20029;-82
2023/07/02 00:14:08;;;;;;;14.95;6.75;;;20.50;99.90;;;;;;5051620;28;20124;-82
2023/07/02 00:16:34;;;;;;;12.73;6.97;;;20.50;99.90;;;;;;5051548;28;20439;-81
2023/07/02 00:19:00;;;;;;;13.70;7.65;;;20.50;99.90;;;;;;5051636;28;20151;-81
2023/07/02 00:21:29;;;;;;;11.13;5.93;;;20.50;99.90;;;;;;5051609;28;20032;-82
2023/07/02 00:23:58;;;;;;;14.73;6.65;;;20.40;99.90;;;;;;5051805;28;20025;-83
2023/07/02 00:26:25;;;;;;;12.32;6.63;;;20.50;99.90;;;;;;5051646;28;20062;-80
2023/07/02 00:28:51;;;;;;;12.48;6.35;;;20.50;99.90;;;;;;5051501;28;20041;-80
2023/07/02 00:31:17;;;;;;;10.40;6.28;;;20.40;99.90;;;;;;5055052;28;20041;-82
2023/07/02 00:33:43;;;;;;;11.27;6.88;;;20.40;99.90;;;;;;5053875;28;20055;-78
2023/07/02 00:36:14;;;;;;;11.82;6.45;;;20.40;99.90;;;;;;5054825;28;20067;-79
2023/07/02 00:38:45;;;;;;;12.73;6.90;;;20.30;99.90;;;;;;5053571;28;20029;-80
2023/07/02 00:41:11;;;;;;;10.43;5.97;;;20.40;99.90;;;;;;5053706;28;20028;-82
2023/07/02 00:43:43;;;;;;;11.63;6.35;;;20.30;99.90;;;;;;5053728;28;20024;-80
2023/07/02 00:46:19;;;;;;;11.63;6.65;;;20.30;99.90;;;;;;5058273;28;20028;-78
2023/07/02 00:48:50;;;;;;;10.85;6.28;;;20.30;99.90;;;;;;5053577;28;20029;-82
2023/07/02 00:51:24;;;;;;;13.60;7.03;;;20.20;99.90;;;;;;5053628;28;20032;-82
2023/07/02 00:53:57;;;;;;;11.02;6.32;;;20.20;99.90;;;;;;5036703;28;20409;-82
2023/07/02 00:56:25;;;;;;;11.52;7.00;;;20.20;99.90;;;;;;5054682;28;20024;-82
2023/07/02 00:58:58;;;;;;;14.60;7.10;;;20.20;99.90;;;;;;5054424;28;20033;-83
2023/07/02 01:01:27;;;;;;;12.30;6.68;;;20.20;99.90;;;;;;5054472;28;20021;-82
2023/07/02 01:03:53;;;;;;;12.63;6.70;;;20.10;99.90;;;;;;5054289;28;20108;-85
2023/07/02 01:06:25;;;;;;;13.73;6.70;;;20.20;99.90;;;;;;5053402;28;20509;-81
2023/07/02 01:08:54;;;;;;;13.75;8.20;;;20.20;99.90;;;;;;5054449;28;20435;-79
2023/07/02 01:11:23;;;;;;;12.55;7.28;;;20.10;99.90;;;;;;5054327;28;20083;-81
2023/07/02 01:13:53;;;;;;;13.65;6.97;;;20.20;99.90;;;;;;5054299;28;20155;-83
2023/07/02 01:16:20;;;;;;;14.23;7.63;;;20.10;99.90;;;;;;5037821;28;20067;-83
2023/07/02 01:18:46;;;;;;;11.88;6.43;;;20.10;99.90;;;;;;5054214;28;20070;-76
2023/07/02 01:21:12;;;;;;;16.75;8.25;;;20.10;99.90;;;;;;5036422;28;20037;-81
2023/07/02 01:23:38;;;;;;;13.30;7.78;;;20.10;99.90;;;;;;5052539;28;20160;-78
2023/07/02 01:26:04;;;;;;;12.05;7.15;;;20.10;99.90;;;;;;5052662;28;20024;-83
2023/07/02 01:28:38;;;;;;;13.63;6.80;;;20.20;99.90;;;;;;5053031;28;20021;-81
2023/07/02 01:31:05;;;;;;;14.13;7.55;;;20.20;99.90;;;;;;5055718;28;20040;-81
2023/07/02 01:33:31;;;;;;;13.15;7.45;;;20.20;99.90;;;;;;5053832;28;20090;-83
2023/07/02 01:35:57;;;;;;;11.40;7.03;;;20.20;99.90;;;;;;5053722;28;20021;-75
2023/07/02 01:38:24;;;;;;;15.27;8.35;;;20.10;99.90;;;;;;5053801;28;20021;-83
2023/07/02 01:40:49;;;;;;;12.55;7.18;;;20.10;99.90;;;;;;5054203;28;20025;-76
2023/07/02 01:43:15;;;;;;;12.95;6.95;;;20.10;99.90;;;;;;5051585;28;20021;-77
2023/07/02 01:45:41;;;;;;;12.50;7.05;;;20.20;99.90;;;;;;5056686;28;20632;-79
2023/07/02 01:48:07;;;;;;;14.05;7.65;;;20.10;99.90;;;;;;5051992;28;20151;-80
2023/07/02 01:50:34;;;;;;;12.05;7.32;;;20.10;99.90;;;;;;5053670;28;20040;-81
2023/07/02 01:52:59;;;;;;;13.48;7.22;;;20.10;99.90;;;;;;5053586;28;20024;-82
2023/07/02 01:55:25;;;;;;;15.38;7.70;;;20.10;99.90;;;;;;5052462;28;20028;-78
2023/07/02 01:57:51;;;;;;;12.88;6.47;;;20.10;99.90;;;;;;5053556;28;20112;-79
2023/07/02 02:00:17;;;;;;;15.68;7.13;;;20.10;99.90;;;;;;5056332;28;20064;-77
2023/07/02 02:02:43;;;;;;;15.70;7.57;;;20.20;99.90;;;;;;5074158;28;20044;-78
2023/07/02 02:05:09;;;;;;;13.35;6.78;;;20.10;99.90;;;;;;5074013;28;20029;-80
2023/07/02 02:07:38;;;;;;;13.98;7.13;;;20.10;99.90;;;;;;5073999;28;20091;-81
2023/07/02 02:10:04;;;;;;;11.65;6.60;;;20.10;99.90;;;;;;5077189;28;20036;-76
2023/07/02 02:12:31;;;;;;;11.30;6.65;;;20.00;99.90;;;;;;5072742;28;20056;-81
2023/07/02 02:14:57;;;;;;;10.80;5.88;;;20.10;99.90;;;;;;5072523;28;20494;-82
2023/07/02 02:17:23;;;;;;;12.43;5.68;;;20.10;99.90;;;;;;5072567;28;20059;-81
2023/07/02 02:19:49;;;;;;;10.77;6.38;;;20.10;99.90;;;;;;5072612;28;20020;-75
2023/07/02 02:22:16;;;;;;;12.73;6.28;;;20.10;99.90;;;;;;5072213;28;20029;-81
2023/07/02 02:24:42;;;;;;;12.48;6.05;;;20.00;99.90;;;;;;5073681;28;20024;-80
2023/07/02 02:27:08;;;;;;;11.07;6.03;;;20.00;99.90;;;;;;5073457;28;20035;-78
2023/07/02 02:29:35;;;;;;;9.23;5.53;;;20.00;99.90;;;;;;5081519;28;20028;-79
2023/07/02 02:32:00;;;;;;;12.88;5.95;;;20.10;99.90;;;;;;5077441;28;20045;-75
2023/07/02 02:34:26;;;;;;;11.90;5.97;;;20.00;99.90;;;;;;5072191;28;20043;-76
2023/07/02 02:36:55;;;;;;;11.43;6.60;;;20.00;99.90;;;;;;5073335;28;20359;-78
2023/07/02 02:39:21;;;;;;;12.30;5.68;;;20.00;99.90;;;;;;5062770;28;20028;-80
2023/07/02 02:41:47;;;;;;;10.75;6.10;;;20.00;99.90;;;;;;5079249;28;20025;-77
2023/07/02 02:44:16;;;;;;;11.63;6.18;;;20.00;99.90;;;;;;5072087;28;20028;-78
2023/07/02 02:46:41;;;;;;;10.48;5.38;;;20.00;99.90;;;;;;5054871;28;20123;-80
2023/07/02 02:49:07;;;;;;;12.13;6.20;;;20.00;99.90;;;;;;5071988;28;20044;-79
2023/07/02 02:51:33;;;;;;;12.13;6.82;;;20.00;99.90;;;;;;5071598;28;20488;-79
2023/07/02 02:53:59;;;;;;;11.50;6.00;;;20.00;99.90;;;;;;5071345;28;20036;-76
2023/07/02 02:56:24;;;;;;;14.02;6.43;;;20.00;99.90;;;;;;5071913;28;20052;-76
2023/07/02 02:58:50;;;;;;;10.98;5.97;;;20.00;99.90;;;;;;5054708;28;20063;-80
2023/07/02 03:01:16;;;;;;;10.85;5.88;;;19.90;99.90;;;;;;5071777;28;20066;-78
2023/07/02 03:03:45;;;;;;;11.38;5.78;;;20.00;99.90;;;;;;5071168;28;20035;-78
2023/07/02 03:06:17;;;;;;;10.05;5.43;;;19.90;99.90;;;;;;5073173;28;20111;-76
2023/07/02 03:08:43;;;;;;;11.10;6.60;;;19.90;99.90;;;;;;5071421;28;20027;-75
2023/07/02 03:11:08;;;;;;;9.82;5.63;;;19.90;99.90;;;;;;5055094;28;20393;-81
2023/07/02 03:13:34;;;;;;;12.82;6.45;;;19.90;99.90;;;;;;5071834;28;20043;-79
2023/07/02 03:16:00;;;;;;;9.45;5.63;;;20.00;99.90;;;;;;5054864;28;20020;-76
2023/07/02 03:18:26;;;;;;;11.15;5.78;;;19.90;99.90;;;;;;5059915;28;20031;-79
2023/07/02 03:20:52;;;;;;;9.60;5.38;;;19.90;99.90;;;;;;5072941;28;20040;-76
2023/07/02 03:23:17;;;;;;;11.27;5.63;;;19.90;99.90;;;;;;5041473;28;20020;-76
2023/07/02 03:25:43;;;;;;;11.05;5.90;;;19.90;99.90;;;;;;5072695;28;20466;-78
2023/07/02 03:28:09;;;;;;;9.48;5.32;;;19.80;99.90;;;;;;5073178;28;20031;-78
2023/07/02 03:30:35;;;;;;;13.63;6.10;;;19.80;99.90;;;;;;5072565;28;20165;-81
2023/07/02 03:33:01;;;;;;;10.07;5.50;;;19.70;99.90;;;;;;5072884;28;20032;-78
2023/07/02 03:35:27;;;;;;;10.88;5.03;;;19.70;99.90;;;;;;5072757;28;20401;-76
2023/07/02 03:37:52;;;;;;;8.90;5.20;;;19.70;99.90;;;;;;5071335;28;20033;-78
2023/07/02 03:40:18;;;;;;;14.50;5.82;;;19.70;99.90;;;;;;5072428;28;20032;-76
2023/07/02 03:42:44;;;;;;;9.30;5.35;;;19.80;99.90;;;;;;5072499;28;20032;-76
2023/07/02 03:45:10;;;;;;;15.85;6.10;;;19.70;99.90;;;;;;5072566;28;20025;-81
2023/07/02 03:47:36;;;;;;;9.60;5.55;;;19.70;99.90;;;;;;5072620;28;20428;-80
2023/07/02 03:50:02;;;;;;;10.05;4.82;;;19.70;99.90;;;;;;5072786;28;20021;-76
2023/07/02 03:52:27;;;;;;;8.05;4.78;;;20.00;99.90;;;;;;5071110;28;20040;-80
2023/07/02 03:54:53;;;;;;;11.48;4.57;;;20.30;99.90;;;;;;5071255;28;20033;-76
2023/07/02 03:57:19;;;;;;;10.10;5.30;;;20.10;99.90;;;;;;5072545;28;20100;-80
2023/07/02 03:59:45;;;;;;;10.15;5.25;;;20.00;99.90;;;;;;5070863;28;20436;-80
2023/07/02 04:02:11;;;;;;;13.13;4.88;;;20.00;99.90;;;;;;5072407;28;20020;-75
2023/07/02 04:04:37;;;;;;;9.85;4.95;;;19.90;99.90;;;;;;5072709;28;20052;-82
2023/07/02 04:07:03;;;;;;;8.98;5.05;;;19.90;99.90;;;;;;5074934;28;20059;-77
2023/07/02 04:09:29;;;;;;;8.85;4.95;;;19.90;99.90;;;;;;5093054;28;20028;-80
2023/07/02 04:11:54;;;;;;;9.57;5.20;;;19.80;99.90;;;;;;5076729;28;20032;-77
2023/07/02 04:14:20;;;;;;;8.88;5.07;;;19.80;99.90;;;;;;5079472;28;20501;-78
2023/07/02 04:16:46;;;;;;;10.40;4.80;;;19.90;99.90;;;;;;5075950;28;20036;-80
2023/07/02 04:19:12;;;;;;;9.75;5.13;;;19.90;99.90;;;;;;5076286;28;20028;-79
2023/07/02 04:21:38;;;;;;;9.73;4.88;;;19.90;99.90;;;;;;5076156;28;20031;-79
2023/07/02 04:24:04;;;;;;;10.60;4.65;;;20.00;99.90;;;;;;5075556;28;20024;-77
2023/07/02 04:26:30;;;;;;;9.88;5.05;;;20.00;99.90;;;;;;5074435;28;20031;-80
2023/07/02 04:28:56;;;;;;;9.43;4.70;;;19.90;99.90;;;;;;5075868;28;20533;-81
2023/07/02 04:31:21;;;;;;;7.72;4.00;;;20.00;99.90;;;;;;5075528;28;20040;-78
2023/07/02 04:33:47;;;;;;;9.02;5.00;;;20.10;99.90;;;;;;5075410;28;20055;-81
2023/07/02 04:36:13;;;;;;;8.23;4.55;;;20.20;99.90;;;;;;5076116;28;20431;-79
2023/07/02 04:38:42;;;;;;;8.88;4.82;;;20.20;99.90;;;;;;5082832;28;20447;-81
2023/07/02 04:41:10;;;;;;;10.35;4.55;;;20.30;99.90;;;;;;5082337;28;20108;-78
2023/07/02 04:43:36;;;;;;;9.57;4.90;;;20.40;99.90;;;;;;5075713;28;20390;-81
2023/07/02 04:46:02;;;;;;;10.98;5.00;;;20.30;99.90;;;;;;5075648;28;20017;-76
2023/07/02 04:48:28;;;;;;;8.63;4.78;;;20.30;99.90;;;;;;5075781;28;20021;-80
2023/07/02 04:50:54;;;;;;;9.07;4.57;;;20.40;99.90;;;;;;5074259;28;20031;-78
2023/07/02 04:53:20;;;;;;;7.38;4.18;;;20.30;99.90;;;;;;5075458;28;20363;-78
2023/07/02 04:55:46;;;;;;;8.10;4.32;;;20.50;99.90;;;;;;5075208;28;20137;-80
2023/07/02 04:58:11;;;;;;;7.53;4.47;;;20.50;99.90;;;;;;5074116;28;20028;-80
2023/07/02 05:00:37;;;;;;;8.43;4.82;;;20.40;99.90;;;;;;5075045;28;20051;-75
2023/07/02 05:03:03;;;;;;;10.60;5.20;;;20.60;99.90;;;;;;5075181;28;20035;-77
2023/07/02 05:05:30;;;;;;;10.43;4.78;;;21.10;99.90;;;;;;5085820;28;20028;-79
2023/07/02 05:07:56;;;;;;;10.98;5.18;;;21.40;99.90;;;;;;5075105;28;20024;-76
2023/07/02 05:10:22;;;;;;;10.10;4.80;;;21.60;99.90;;;;;;5075036;28;20070;-80
2023/07/02 05:12:47;;;;;;;9.75;4.95;;;21.50;99.90;;;;;;5074929;28;20025;-79
2023/07/02 05:15:13;;;;;;;9.82;5.35;;;21.60;99.90;;;;;;5075121;28;20044;-80
2023/07/02 05:17:39;;;;;;;10.60;5.40;;;21.40;99.90;;;;;;5074571;28;20020;-82
2023/07/02 05:20:05;;;;;;;10.40;5.60;;;21.40;99.90;;;;;;5074980;28;20056;-81
2023/07/02 05:22:31;;;;;;;13.55;5.30;;;21.50;99.90;;;;;;5075071;28;20021;-80
2023/07/02 05:24:57;;;;;;;8.57;4.53;;;21.70;99.90;;;;;;5069250;28;20021;-78
2023/07/02 05:27:23;;;;;;;9.05;4.85;;;21.90;99.90;;;;;;5078266;28;20103;-80
2023/07/02 05:29:49;;;;;;;6.70;4.35;;;22.30;99.90;;;;;;5087160;28;20020;-81
2023/07/02 05:32:15;;;;;;;9.55;4.22;;;22.60;99.90;;;;;;5074118;28;20473;-81
2023/07/02 05:34:40;;;;;;;11.88;4.82;;;22.70;99.90;;;;;;5072619;28;20509;-78
2023/07/02 05:37:06;;;;;;;9.20;4.88;;;23.00;99.90;;;;;;5062411;28;20060;-76
2023/07/02 05:39:34;;;;;;;8.93;4.57;;;23.00;99.90;;;;;;5059402;28;20033;-76
2023/07/02 05:41:59;;;;;;;9.57;5.55;;;22.90;99.90;;;;;;5061249;28;20089;-80
2023/07/02 05:44:25;;;;;;;10.20;5.43;;;22.80;99.90;;;;;;5065158;28;20103;-81
2023/07/02 05:46:51;;;;;;;11.68;4.20;;;22.40;99.90;;;;;;5066026;28;20040;-81
2023/07/02 05:49:17;;;;;;;8.60;4.63;;;22.50;99.90;;;;;;5058709;28;20038;-76
2023/07/02 05:51:43;;;;;;;12.20;5.20;;;22.60;99.90;;;;;;5057738;28;20366;-76
2023/07/02 05:54:08;;;;;;;9.98;4.22;;;23.00;99.90;;;;;;5073429;28;20090;-78
2023/07/02 05:56:34;;;;;;;9.05;4.93;;;23.30;99.90;;;;;;5071871;28;20363;-82
2023/07/02 05:59:03;;;;;;;10.07;4.82;;;23.30;99.90;;;;;;5073939;28;20051;-79
2023/07/02 06:01:29;;;;;;;10.60;5.70;;;23.70;99.90;;;;;;5084920;28;20347;-77
2023/07/02 06:03:54;;;;;;;10.65;5.32;;;23.70;99.90;;;;;;5073931;28;20127;-80
2023/07/02 06:06:23;;;;;;;10.48;5.78;;;23.80;99.90;;;;;;5075446;28;20489;-83
2023/07/02 06:08:54;;;;;;;10.30;5.20;;;23.50;99.90;;;;;;5087013;28;20123;-80
2023/07/02 06:11:20;;;;;;;9.40;4.90;;;23.40;99.90;;;;;;5056413;28;20020;-80
2023/07/02 06:13:46;;;;;;;9.43;4.63;;;23.40;99.90;;;;;;5074403;28;20055;-82
2023/07/02 06:16:12;;;;;;;12.13;5.70;;;23.50;99.90;;;;;;5074820;28;20074;-80
2023/07/02 06:18:38;;;;;;;10.95;5.40;;;23.50;99.90;;;;;;5073950;28;20031;-81
2023/07/02 06:21:04;;;;;;;12.30;5.90;;;23.70;99.90;;;;;;5074216;28;20043;-79
2023/07/02 06:23:38;;;;;;;10.55;5.85;;;23.80;99.90;;;;;;5074017;28;20065;-83
2023/07/02 06:26:04;;;;;;;11.93;6.78;;;24.00;99.90;;;;;;5073596;28;20107;-79
2023/07/02 06:28:30;;;;;;;11.13;5.88;;;23.80;99.90;;;;;;5072703;28;20147;-83
2023/07/02 06:30:59;;;;;;;9.95;5.63;;;24.30;99.90;;;;;;5055894;28;20043;-81
2023/07/02 06:33:25;;;;;;;9.43;4.97;;;24.30;99.90;;;;;;5066136;28;20045;-81
2023/07/02 06:35:51;;;;;;;9.77;5.38;;;24.50;99.90;;;;;;5070662;28;20025;-82
2023/07/02 06:38:17;;;;;;;9.63;5.03;;;24.80;99.90;;;;;;5075048;28;20039;-82
2023/07/02 06:40:43;;;;;;;9.43;5.22;;;25.00;99.90;;;;;;5074523;28;20815;-79
2023/07/02 06:43:09;;;;;;;10.95;5.07;;;25.20;99.90;;;;;;5072420;28;20481;-81
2023/07/02 06:45:35;;;;;;;8.13;4.55;;;25.50;99.90;;;;;;5073804;28;20025;-81
2023/07/02 06:48:01;;;;;;;8.20;4.88;;;25.70;99.90;;;;;;5073859;28;20025;-82
2023/07/02 06:50:27;;;;;;;9.00;4.70;;;25.50;99.90;;;;;;5073073;28;20058;-79
2023/07/02 06:53:02;;;;;;;7.45;4.40;;;25.50;99.90;;;;;;5051426;28;20095;-83
2023/07/02 06:55:27;;;;;;;8.23;4.72;;;25.80;99.90;;;;;;5057163;28;20039;-82
2023/07/02 06:57:54;;;;;;;8.35;4.32;;;25.60;99.90;;;;;;5074185;28;20021;-80
2023/07/02 07:00:20;;;;;;;7.68;4.28;;;25.50;99.90;;;;;;5073406;28;20378;-81
2023/07/02 07:02:45;;;;;;;8.20;4.65;;;25.60;99.90;;;;;;5055763;28;20055;-83
2023/07/02 07:05:12;;;;;;;9.15;4.40;;;25.40;99.90;;;;;;5053209;28;20493;-81
2023/07/02 07:07:37;;;;;;;10.55;4.93;;;26.00;99.90;;;;;;5055245;28;20032;-76
2023/07/02 07:10:04;;;;;;;7.63;4.68;;;26.20;99.90;;;;;;5073195;28;20076;-82
2023/07/02 07:12:30;;;;;;;8.13;4.72;;;26.30;99.90;;;;;;5075037;28;20032;-84
2023/07/02 07:14:55;;;;;;;10.40;5.07;;;26.10;99.90;;;;;;5073861;28;20385;-83
2023/07/02 07:17:21;;;;;;;9.95;4.63;;;26.10;99.80;;;;;;5073583;28;20028;-83
2023/07/02 07:19:47;;;;;;;9.32;5.30;;;26.00;99.90;;;;;;5073801;28;20039;-83
2023/07/02 07:22:13;;;;;;;9.30;4.72;;;25.70;99.90;;;;;;5075016;28;20021;-82
2023/07/02 07:24:40;;;;;;;8.15;4.93;;;25.60;99.90;;;;;;5074279;28;20032;-84
2023/07/02 07:27:05;;;;;;;7.28;4.85;;;25.90;99.90;;;;;;5074491;28;20078;-83
2023/07/02 07:29:31;;;;;;;8.75;4.82;;;25.60;99.90;;;;;;5074269;28;20473;-81
2023/07/02 07:31:57;;;;;;;9.18;5.28;;;25.20;99.90;;;;;;5071930;28;20040;-82
2023/07/02 07:34:23;;;;;;;8.57;4.82;;;25.30;99.90;;;;;;5081900;28;20055;-79
2023/07/02 07:36:49;;;;;;;8.88;4.97;;;25.70;99.90;;;;;;5079913;28;20020;-80
2023/07/02 07:39:14;;;;;;;8.43;4.85;;;25.90;99.90;;;;;;5080500;28;20037;-85
2023/07/02 07:41:40;;;;;;;11.50;5.20;;;25.80;99.90;;;;;;5067042;28;20020;-82
2023/07/02 07:44:06;;;;;;;9.05;4.70;;;26.30;99.90;;;;;;5078327;28;20579;-84
2023/07/02 07:46:32;;;;;;;11.13;5.05;;;26.30;99.90;;;;;;5067181;28;20057;-83
2023/07/02 07:48:58;;;;;;;7.53;4.70;;;25.80;99.90;;;;;;5054876;28;20089;-78
2023/07/02 07:51:24;;;;;;;9.85;6.05;;;25.70;99.90;;;;;;5066300;28;20048;-81
2023/07/02 07:53:49;;;;;;;13.98;6.07;;;25.50;99.90;;;;;;5066450;28;20036;-83
2023/07/02 07:56:15;;;;;;;11.05;5.70;;;24.80;99.90;;;;;;5068851;28;20025;-81
2023/07/02 07:58:41;;;;;;;10.07;5.40;;;24.60;99.90;;;;;;5049795;28;20017;-81
2023/07/02 08:01:07;;;;;;;13.00;6.70;;;24.50;99.90;;;;;;5058813;28;20024;-84
2023/07/02 08:03:32;;;;;;;10.68;5.93;;;24.30;99.90;;;;;;5064148;28;20401;-83
2023/07/02 08:05:58;;;;;;;10.85;6.28;;;24.30;99.90;;;;;;5078959;28;20432;-81
2023/07/02 08:08:24;;;;;;;10.88;6.22;;;24.10;99.90;;;;;;5078803;28;20031;-80
2023/07/02 08:10:50;;;;;;;12.13;6.55;;;24.00;99.90;;;;;;5077463;28;20029;-83
2023/07/02 08:13:17;;;;;;;11.52;5.80;;;23.80;99.90;;;;;;5078155;28;20025;-80
2023/07/02 08:15:43;;;;;;;11.90;6.60;;;23.70;99.90;;;;;;5079966;28;20068;-86
2023/07/02 08:18:11;;;;;;;9.27;6.10;;;23.50;99.90;;;;;;5080248;28;20020;-85
2023/07/02 08:20:37;;;;;;;11.35;6.25;;;23.40;99.90;;;;;;5080402;28;20064;-84
2023/07/02 08:23:03;;;;;;;12.75;6.47;;;23.10;99.90;;;;;;5083563;28;20028;-82
2023/07/02 08:25:29;;;;;;;11.63;7.13;;;23.10;99.90;;;;;;5084581;28;20035;-84
2023/07/02 08:27:54;;;;;;;11.50;6.80;;;23.10;99.90;;;;;;5071772;28;20028;-84
2023/07/02 08:30:20;;;;;;;14.55;7.07;;;23.10;99.90;;;;;;5060371;28;20542;-86
2023/07/02 08:32:46;;;;;;;13.85;7.03;;;23.20;99.90;;;;;;5067470;28;20041;-82
2023/07/02 08:35:12;;;;;;;13.38;7.65;;;23.30;99.90;;;;;;5062131;28;20037;-84
2023/07/02 08:37:38;;;;;;;12.38;6.78;;;23.50;99.90;;;;;;5058441;28;20031;-85
2023/07/02 08:40:04;;;;;;;13.77;6.93;;;23.60;99.90;;;;;;5056787;28;20029;-83
2023/07/02 08:42:33;;;;;;;13.45;6.20;;;23.60;99.90;;;;;;5055645;28;20029;-80
2023/07/02 08:45:00;;;;;;;12.77;7.30;;;23.70;99.90;;;;;;5055764;28;20024;-83
2023/07/02 08:47:26;;;;;;;13.43;7.18;;;23.60;99.90;;;;;;5055587;28;20086;-78
2023/07/02 08:49:52;;;;;;;12.23;7.22;;;23.50;99.90;;;;;;5055679;28;20112;-79
2023/07/02 08:52:17;;;;;;;12.73;7.65;;;23.70;99.90;;;;;;5055101;28;20096;-83
2023/07/02 08:54:43;;;;;;;14.85;6.93;;;23.70;99.90;;;;;;5055388;28;20040;-80
2023/07/02 08:57:09;;;;;;;14.20;7.07;;;23.60;99.90;;;;;;5037376;28;20097;-80
2023/07/02 08:59:38;;;;;;;13.82;8.30;;;23.70;99.90;;;;;;5055733;28;20482;-80
2023/07/02 09:02:04;;;;;;;11.90;7.35;;;23.80;99.90;;;;;;5060112;28;20017;-85
2023/07/02 09:04:30;;;;;;;12.20;7.07;;;23.90;99.90;;;;;;5060255;28;20032;-85
2023/07/02 09:07:11;;;;;;;12.18;7.22;;;23.60;99.90;;;;;;5060599;28;20017;-82
2023/07/02 09:09:47;;;;;;;11.70;6.95;;;23.60;99.90;;;;;;5062242;28;20059;-82
2023/07/02 09:12:30;;;;;;;14.93;8.02;;;23.90;99.90;;;;;;5058385;28;20398;-85
2023/07/02 09:14:57;;;;;;;10.43;6.72;;;23.90;99.90;;;;;;5058895;28;20072;-82
2023/07/02 09:17:31;;;;;;;14.02;7.25;;;24.10;99.90;;;;;;5064125;28;20029;-85
2023/07/02 09:20:00;;;;;;;12.85;7.97;;;24.20;99.90;;;;;;5048253;28;20394;-82
2023/07/02 09:22:26;;;;;;;12.07;7.05;;;24.30;99.90;;;;;;5039683;28;20025;-83
2023/07/02 09:24:58;;;;;;;16.33;8.05;;;24.30;99.90;;;;;;5040151;28;20502;-84
2023/07/02 09:27:41;;;;;;;13.00;7.60;;;24.60;99.90;;;;;;5043039;28;20037;-81
2023/07/02 09:30:15;;;;;;;13.80;7.43;;;24.80;99.90;;;;;;5059749;28;20059;-84
2023/07/02 09:32:45;;;;;;;13.73;7.60;;;25.00;99.90;;;;;;5078420;28;20044;-79
2023/07/02 09:35:12;;;;;;;12.75;7.78;;;25.20;99.90;;;;;;5076636;28;20040;-78
2023/07/02 09:37:41;;;;;;;12.27;7.00;;;25.40;99.90;;;;;;5076675;28;20366;-83
2023/07/02 09:40:08;;;;;;;11.07;7.28;;;25.30;99.90;;;;;;5075589;28;20032;-80
2023/07/02 09:42:38;;;;;;;13.73;8.15;;;25.40;99.90;;;;;;5077457;28;20012;-82
2023/07/02 09:45:10;;;;;;;14.32;7.90;;;25.40;99.90;;;;;;5063983;28;20489;-82
2023/07/02 09:47:41;;;;;;;;;;;25.30;99.90;;;;;;5076818;28;20466;-79
2023/07/02 09:50:07;;;;;;;11.95;7.47;;;25.20;99.90;;;;;;5077847;28;20305;-78
2023/07/02 09:52:36;;;;;;;12.93;6.50;;;25.20;99.90;;;;;;5075928;28;20385;-78
2023/07/02 09:55:04;;;;;;;11.18;6.80;;;25.40;99.90;;;;;;5063115;28;20041;-81
2023/07/02 09:57:31;;;;;;;15.73;8.52;;;25.20;99.90;;;;;;5077841;28;20100;-83
2023/07/02 09:59:59;;;;;;;10.95;6.82;;;25.40;99.90;;;;;;5075440;28;20036;-75
2023/07/02 10:02:25;;;;;;;12.70;7.15;;;25.50;99.90;;;;;;5070561;28;20017;-83
2023/07/02 10:04:54;;;;;;;12.63;7.53;;;25.70;99.90;;;;;;5069019;28;20149;-84
2023/07/02 10:07:33;;;;;;;10.93;6.78;;;26.00;99.90;;;;;;5075039;28;20426;-85
2023/07/02 10:10:01;;;;;;;11.52;6.57;;;26.40;99.90;;;;;;5076670;28;20056;-75
2023/07/02 10:12:28;;;;;;;10.35;7.05;;;26.50;99.90;;;;;;5057994;28;20537;-76
2023/07/02 10:14:56;;;;;;;12.80;6.05;;;26.60;99.90;;;;;;5076138;28;20063;-77
2023/07/02 10:17:29;;;;;;;12.13;6.68;;;26.70;99.90;;;;;;5056752;28;20036;-82
2023/07/02 10:20:00;;;;;;;11.13;6.45;;;26.60;99.90;;;;;;5075126;28;20027;-77
2023/07/02 10:22:26;;;;;;;13.98;6.45;;;26.80;99.90;;;;;;5075823;28;20016;-75
2023/07/02 10:24:59;;;;;;;13.27;7.30;;;26.50;99.90;;;;;;5076251;28;20031;-78
2023/07/02 10:27:36;;;;;;;8.75;5.20;;;26.40;99.90;;;;;;5075191;28;20470;-75
2023/07/02 10:30:04;;;;;;;10.38;6.80;;;26.40;99.90;;;;;;5082365;28;20028;-74
2023/07/02 10:32:31;;;;;;;10.68;6.60;;;26.70;99.90;;;;;;5075336;28;20051;-85
2023/07/02 10:34:58;;;;;;;11.05;6.55;;;26.90;99.90;;;;;;5078065;28;20464;-76
2023/07/02 10:37:24;;;;;;;13.25;7.18;;;27.00;99.90;;;;;;5074584;28;20394;-77
2023/07/02 10:39:51;;;;;;;12.52;6.80;;;27.10;99.90;;;;;;5088034;28;20028;-84
2023/07/02 10:42:17;;;;;;;14.15;7.43;;;27.10;99.90;;;;;;5076119;28;20040;-82
2023/07/02 10:44:53;;;;;;;11.43;6.80;;;27.40;99.90;;;;;;5076144;28;20032;-83
2023/07/02 10:47:19;;;;;;;11.38;6.93;;;27.30;99.90;;;;;;5077345;28;20386;-79
2023/07/02 10:49:45;;;;;;;12.07;6.85;;;27.50;99.90;;;;;;5075429;28;20028;-84
2023/07/02 10:52:11;;;;;;;11.40;7.10;;;27.50;99.90;;;;;;5075171;28;20025;-81
2023/07/02 10:54:45;;;;;;;11.32;7.00;;;27.70;99.90;;;;;;5086078;28;20040;-78
2023/07/02 10:57:16;;;;;;;9.38;5.93;;;27.40;99.90;;;;;;5076492;28;20028;-84
2023/07/02 10:59:41;;;;;;;9.52;6.30;;;27.20;99.80;;;;;;5076329;28;20036;-80
2023/07/02 11:02:09;;;;;;;11.55;6.47;;;26.90;99.90;;;;;;5075976;28;20028;-78
2023/07/02 11:04:37;;;;;;;11.68;7.18;;;27.20;99.90;;;;;;5076748;28;20040;-75
2023/07/02 11:07:04;;;;;;;10.77;6.50;;;26.90;99.90;;;;;;5080112;28;20013;-82
2023/07/02 11:09:30;;;;;;;16.60;6.28;;;26.70;99.90;;;;;;5075050;28;20094;-75
2023/07/02 11:11:58;;;;;;;10.02;6.45;;;26.50;99.90;;;;;;5076638;28;20023;-78
2023/07/02 11:14:32;;;;;;;9.02;5.80;;;26.10;99.90;;;;;;5077957;28;20113;-83
2023/07/02 11:16:59;;;;;;;8.80;5.80;;;26.20;99.90;;;;;;5077089;28;20025;-76
2023/07/02 11:19:25;;;;;;;11.10;6.45;;;26.50;99.90;;;;;;5056781;28;20052;-83
2023/07/02 11:21:53;;;;;;;11.60;6.40;;;26.80;99.90;;;;;;5058491;28;20025;-85
2023/07/02 11:24:34;;;;;;;11.88;6.93;;;26.80;99.90;;;;;;5074998;28;20381;-84
2023/07/02 11:27:02;;;;;;;12.88;5.90;;;27.10;99.90;;;;;;5074664;28;20473;-84
2023/07/02 11:29:34;;;;;;;11.63;6.40;;;27.00;99.90;;;;;;5077039;28;20028;-77
2023/07/02 11:32:09;;;;;;;10.73;5.78;;;27.00;99.70;;;;;;5074173;28;20123;-83
2023/07/02 11:34:35;;;;;;;12.68;7.40;;;26.90;99.90;;;;;;5075407;28;20397;-76
2023/07/02 11:37:01;;;;;;;14.13;7.13;;;26.80;99.60;;;;;;5075122;28;20020;-83
2023/07/02 11:39:27;;;;;;;12.27;7.03;;;26.80;99.90;;;;;;5074933;28;20078;-81
2023/07/02 11:41:53;;;;;;;12.30;6.88;;;26.80;99.90;;;;;;5076506;28;20035;-83
2023/07/02 11:44:19;;;;;;;10.65;6.65;;;26.80;99.90;;;;;;5068272;28;20077;-79
2023/07/02 11:46:46;;;;;;;11.15;6.10;;;26.80;99.90;;;;;;5063470;28;20033;-81
2023/07/02 11:49:12;;;;;;;12.73;6.13;;;26.90;99.90;;;;;;5057711;28;20017;-85
2023/07/02 11:51:46;;;;;;;12.55;6.43;;;26.90;99.90;;;;;;5059724;28;20024;-84
2023/07/02 11:54:12;;;;;;;10.27;6.28;;;26.90;99.90;;;;;;5078539;28;20063;-86
2023/07/02 11:56:38;;;;;;;11.40;6.43;;;26.80;99.80;;;;;;5076700;28;20466;-84
2023/07/02 11:59:04;;;;;;;11.85;6.15;;;26.80;99.90;;;;;;5059506;28;20079;-84
2023/07/02 12:01:29;;;;;;;14.85;7.20;;;26.90;99.30;;;;;;5082921;28;20466;-86
2023/07/02 12:03:55;;;;;;;10.00;5.95;;;27.00;99.70;;;;;;5063687;28;20033;-76
2023/07/02 12:06:21;;;;;;;10.57;6.78;;;27.20;99.40;;;;;;5074262;28;20084;-80
2023/07/02 12:08:47;;;;;;;11.13;6.95;;;27.40;99.90;;;;;;5078658;28;20028;-83
2023/07/02 12:11:13;;;;;;;9.73;6.00;;;27.60;99.40;;;;;;5077181;28;20105;-82
2023/07/02 12:13:38;;;;;;;10.73;6.47;;;27.70;99.50;;;;;;5078316;28;20044;-78
2023/07/02 12:16:04;;;;;;;13.18;7.63;;;27.70;97.60;;;;;;5076703;28;20467;-83
2023/07/02 12:18:30;;;;;;;11.07;7.00;;;27.60;99.90;;;;;;5074711;28;20111;-82
2023/07/02 12:20:56;;;;;;;10.43;6.75;;;27.90;99.40;;;;;;5075151;28;20063;-84
2023/07/02 12:23:22;;;;;;;9.70;6.22;;;27.80;98.50;;;;;;5074822;28;20036;-85
2023/07/02 12:25:47;;;;;;;11.18;7.18;;;27.70;99.20;;;;;;5075267;28;20483;-86
2023/07/02 12:28:15;;;;;;;12.07;7.03;;;27.60;99.00;;;;;;5077160;28;20397;-84
2023/07/02 12:30:41;;;;;;;13.55;6.68;;;27.60;98.90;;;;;;5076536;28;20028;-78
2023/07/02 12:33:07;;;;;;;13.35;6.30;;;27.70;98.50;;;;;;5073757;28;20040;-82
2023/07/02 12:35:33;;;;;;;10.05;6.05;;;27.80;97.20;;;;;;5060518;28;20048;-83
2023/07/02 12:37:59;;;;;;;12.77;6.68;;;27.80;98.20;;;;;;5081037;28;20021;-83
2023/07/02 12:40:25;;;;;;;12.13;7.30;;;27.90;97.70;;;;;;5078634;28;20023;-85